Wetterstation Vordersexau
Wetterdaten: Woche 26.06.23 - 02.07.23 (KW26)
Datum Zeit Temp. A. Feuchte A. Luftdruck Regen Wind Richtung Taupunkt Windchill Windben
26.06.2023 00:00 20,3 C 72 % 1011,6 hPa 0,0 l/m 0,0 km/h (0 Bft) N 15,1 C 20,3 C 0,0 km/h (0 Bft)
26.06.2023 01:00 19,4 C 77 % 1011,8 hPa 0,0 l/m 0,0 km/h (0 Bft) N 15,3 C 19,4 C 2,5 km/h (1 Bft)
26.06.2023 02:00 18,6 C 77 % 1011,7 hPa 0,0 l/m 0,0 km/h (0 Bft) O-SO 14,5 C 18,6 C 2,5 km/h (1 Bft)
26.06.2023 03:00 17,4 C 82 % 1012,0 hPa 0,0 l/m 1,1 km/h (1 Bft) N 14,3 C 17,4 C 2,5 km/h (1 Bft)
26.06.2023 04:00 16,7 C 81 % 1011,9 hPa 0,0 l/m 0,0 km/h (0 Bft) O-SO 13,4 C 16,7 C 2,5 km/h (1 Bft)
26.06.2023 05:00 16,5 C 81 % 1011,8 hPa 0,0 l/m 2,5 km/h (1 Bft) N 13,2 C 16,5 C 3,6 km/h (1 Bft)
26.06.2023 06:00 16,0 C 82 % 1011,8 hPa 0,0 l/m 0,0 km/h (0 Bft) N 12,9 C 16,0 C 2,5 km/h (1 Bft)
26.06.2023 07:00 16,8 C 80 % 1012,1 hPa 0,0 l/m 0,0 km/h (0 Bft) O-SO 13,3 C 16,8 C 2,5 km/h (1 Bft)
26.06.2023 08:00 19,0 C 75 % 1012,3 hPa 0,0 l/m 1,1 km/h (1 Bft) N 14,5 C 19,0 C 3,6 km/h (1 Bft)
26.06.2023 09:00 22,8 C 65 % 1012,3 hPa 0,0 l/m 0,0 km/h (0 Bft) W 15,9 C 22,8 C 2,5 km/h (1 Bft)
26.06.2023 10:00 26,9 C 53 % 1012,3 hPa 0,0 l/m 6,1 km/h (2 Bft) W-NW 16,5 C 26,9 C 9,7 km/h (2 Bft)
26.06.2023 11:00 28,3 C 49 % 1012,3 hPa 0,0 l/m 9,7 km/h (2 Bft) W 16,5 C 27,8 C 14,8 km/h (3 Bft)
26.06.2023 12:00 28,1 C 53 % 1012,8 hPa 0,0 l/m 5,0 km/h (1 Bft) N-NW 17,6 C 28,1 C 9,7 km/h (2 Bft)
26.06.2023 13:00 27,4 C 56 % 1013,2 hPa 0,0 l/m 2,5 km/h (1 Bft) NW 17,8 C 27,4 C 3,6 km/h (1 Bft)
26.06.2023 14:00 29,6 C 49 % 1012,9 hPa 0,0 l/m 3,6 km/h (1 Bft) N-NW 17,7 C 29,6 C 6,1 km/h (2 Bft)
26.06.2023 15:00 29,2 C 51 % 1013,0 hPa 0,0 l/m 5,0 km/h (1 Bft) W 18,0 C 29,2 C 7,2 km/h (2 Bft)
26.06.2023 16:00 28,5 C 48 % 1012,9 hPa 0,0 l/m 6,1 km/h (2 Bft) W-NW 16,4 C 28,5 C 13,3 km/h (3 Bft)
26.06.2023 17:00 29,3 C 45 % 1012,8 hPa 0,0 l/m 7,2 km/h (2 Bft) N-NO 16,1 C 29,2 C 13,3 km/h (3 Bft)
26.06.2023 18:00 29,5 C 42 % 1012,8 hPa 0,0 l/m 3,6 km/h (1 Bft) NW 15,2 C 29,5 C 7,2 km/h (2 Bft)
26.06.2023 19:00 27,2 C 47 % 1013,0 hPa 0,0 l/m 2,5 km/h (1 Bft) N-NW 14,9 C 27,2 C 6,1 km/h (2 Bft)
26.06.2023 20:00 26,4 C 47 % 1013,5 hPa 0,0 l/m 2,5 km/h (1 Bft) N 14,2 C 26,4 C 7,2 km/h (2 Bft)
26.06.2023 21:00 25,0 C 48 % 1014,1 hPa 0,0 l/m 2,5 km/h (1 Bft) NO 13,2 C 25,0 C 7,2 km/h (2 Bft)
26.06.2023 22:00 23,3 C 51 % 1014,8 hPa 0,0 l/m 3,6 km/h (1 Bft) N 12,6 C 23,3 C 7,2 km/h (2 Bft)
26.06.2023 23:00 19,5 C 62 % 1015,5 hPa 0,0 l/m 0,0 km/h (0 Bft) N 12,0 C 19,5 C 0,0 km/h (0 Bft)
27.06.2023 00:00 18,3 C 67 % 1016,0 hPa 0,0 l/m 0,0 km/h (0 Bft) N 12,1 C 18,3 C 0,0 km/h (0 Bft)
27.06.2023 01:00 16,5 C 73 % 1016,6 hPa 0,0 l/m 0,0 km/h (0 Bft) N 11,6 C 16,5 C 0,0 km/h (0 Bft)
27.06.2023 02:00 16,0 C 77 % 1016,6 hPa 0,0 l/m 0,0 km/h (0 Bft) N 12,0 C 16,0 C 2,5 km/h (1 Bft)
27.06.2023 03:00 15,9 C 78 % 1016,7 hPa 0,0 l/m 0,0 km/h (0 Bft) N 12,1 C 15,9 C 2,5 km/h (1 Bft)
27.06.2023 04:00 15,5 C 79 % 1016,9 hPa 0,0 l/m 0,0 km/h (0 Bft) N 11,9 C 15,5 C 2,5 km/h (1 Bft)
27.06.2023 05:00 15,6 C 79 % 1016,6 hPa 0,0 l/m 0,0 km/h (0 Bft) N 12,0 C 15,6 C 0,0 km/h (0 Bft)
27.06.2023 06:00 15,0 C 83 % 1016,8 hPa 0,0 l/m 0,0 km/h (0 Bft) N 12,1 C 15,0 C 0,0 km/h (0 Bft)
27.06.2023 07:00 15,2 C 83 % 1016,7 hPa 0,0 l/m 0,0 km/h (0 Bft) N 12,3 C 15,2 C 2,5 km/h (1 Bft)
27.06.2023 08:00 15,6 C 82 % 1017,1 hPa 0,0 l/m 0,0 km/h (0 Bft) N 12,5 C 15,6 C 0,0 km/h (0 Bft)
27.06.2023 09:00 17,8 C 75 % 1017,0 hPa 0,0 l/m 0,0 km/h (0 Bft) N 13,3 C 17,8 C 0,0 km/h (0 Bft)
27.06.2023 10:00 19,8 C 60 % 1016,7 hPa 0,0 l/m 1,1 km/h (1 Bft) W-NW 11,8 C 19,8 C 2,5 km/h (1 Bft)
27.06.2023 11:00 21,1 C 57 % 1016,7 hPa 0,0 l/m 1,1 km/h (1 Bft) W 12,2 C 21,1 C 3,6 km/h (1 Bft)
27.06.2023 12:00 22,1 C 53 % 1016,5 hPa 0,0 l/m 3,6 km/h (1 Bft) NW 12,1 C 22,1 C 6,1 km/h (2 Bft)
27.06.2023 13:00 22,5 C 50 % 1016,2 hPa 0,0 l/m 2,5 km/h (1 Bft) NW 11,5 C 22,5 C 3,6 km/h (1 Bft)
27.06.2023 14:00 23,6 C 47 % 1016,2 hPa 0,0 l/m 5,0 km/h (1 Bft) N 11,6 C 23,6 C 7,2 km/h (2 Bft)
27.06.2023 15:00 23,7 C 44 % 1015,6 hPa 0,0 l/m 2,5 km/h (1 Bft) N-NO 10,7 C 23,7 C 6,1 km/h (2 Bft)
27.06.2023 16:00 24,9 C 39 % 1014,9 hPa 0,0 l/m 2,5 km/h (1 Bft) W 10,0 C 24,9 C 3,6 km/h (1 Bft)
27.06.2023 17:00 25,5 C 38 % 1014,7 hPa 0,0 l/m 5,0 km/h (1 Bft) W-SW 10,1 C 25,5 C 9,7 km/h (2 Bft)
27.06.2023 18:00 25,4 C 40 % 1014,2 hPa 0,0 l/m 2,5 km/h (1 Bft) N 10,8 C 25,4 C 6,1 km/h (2 Bft)
27.06.2023 19:00 25,0 C 40 % 1013,6 hPa 0,0 l/m 3,6 km/h (1 Bft) N-NO 10,4 C 25,0 C 6,1 km/h (2 Bft)
27.06.2023 20:00 24,2 C 42 % 1013,5 hPa 0,0 l/m 1,1 km/h (1 Bft) N-NO 10,5 C 24,2 C 3,6 km/h (1 Bft)
27.06.2023 21:00 23,4 C 44 % 1013,5 hPa 0,0 l/m 1,1 km/h (1 Bft) N 10,4 C 23,4 C 2,5 km/h (1 Bft)
27.06.2023 22:00 20,0 C 59 % 1013,7 hPa 0,0 l/m 0,0 km/h (0 Bft) N 11,7 C 20,0 C 2,5 km/h (1 Bft)
27.06.2023 23:00 17,0 C 68 % 1014,6 hPa 0,0 l/m 0,0 km/h (0 Bft) N 11,0 C 17,0 C 2,5 km/h (1 Bft)
28.06.2023 00:00 15,6 C 73 % 1014,8 hPa 0,0 l/m 0,0 km/h (0 Bft) N 10,8 C 15,6 C 2,5 km/h (1 Bft)
28.06.2023 01:00 15,6 C 73 % 1014,9 hPa 0,0 l/m 0,0 km/h (0 Bft) N 10,8 C 15,6 C 0,0 km/h (0 Bft)
28.06.2023 02:00 14,4 C 80 % 1014,8 hPa 0,0 l/m 0,0 km/h (0 Bft) N 11,0 C 14,4 C 0,0 km/h (0 Bft)
28.06.2023 03:00 13,8 C 81 % 1015,0 hPa 0,0 l/m 0,0 km/h (0 Bft) N 10,6 C 13,8 C 0,0 km/h (0 Bft)
28.06.2023 04:00 14,8 C 77 % 1014,6 hPa 0,0 l/m 0,0 km/h (0 Bft) N-NO 10,8 C 14,8 C 0,0 km/h (0 Bft)
28.06.2023 05:00 14,4 C 79 % 1014,6 hPa 0,0 l/m 1,1 km/h (1 Bft) N-NO 10,8 C 14,4 C 2,5 km/h (1 Bft)
28.06.2023 06:00 14,4 C 81 % 1014,2 hPa 0,0 l/m 1,1 km/h (1 Bft) N-NO 11,2 C 14,4 C 2,5 km/h (1 Bft)
28.06.2023 07:00 15,1 C 77 % 1014,1 hPa 0,0 l/m 1,1 km/h (1 Bft) N 11,1 C 15,1 C 2,5 km/h (1 Bft)
28.06.2023 08:00 15,5 C 77 % 1014,4 hPa 0,0 l/m 0,0 km/h (0 Bft) O-SO 11,5 C 15,5 C 0,0 km/h (0 Bft)
28.06.2023 09:00 16,9 C 73 % 1014,2 hPa 0,0 l/m 1,1 km/h (1 Bft) O-SO 12,0 C 16,9 C 3,6 km/h (1 Bft)
28.06.2023 10:00 18,5 C 64 % 1014,6 hPa 0,0 l/m 1,1 km/h (1 Bft) SW 11,6 C 18,5 C 2,5 km/h (1 Bft)
28.06.2023 11:00 20,8 C 61 % 1014,8 hPa 0,0 l/m 2,5 km/h (1 Bft) W-SW 13,0 C 20,8 C 3,6 km/h (1 Bft)
28.06.2023 12:00 21,9 C 56 % 1014,4 hPa 0,0 l/m 1,1 km/h (1 Bft) SW 12,7 C 21,9 C 2,5 km/h (1 Bft)
28.06.2023 13:00 23,9 C 49 % 1014,4 hPa 0,0 l/m 2,5 km/h (1 Bft) W-SW 12,5 C 23,9 C 6,1 km/h (2 Bft)
28.06.2023 14:00 25,7 C 43 % 1013,8 hPa 0,0 l/m 3,6 km/h (1 Bft) N 12,2 C 25,7 C 6,1 km/h (2 Bft)
28.06.2023 15:00 25,7 C 41 % 1013,5 hPa 0,0 l/m 2,5 km/h (1 Bft) S-SW 11,4 C 25,7 C 3,6 km/h (1 Bft)
28.06.2023 16:00 26,3 C 41 % 1013,3 hPa 0,0 l/m 3,6 km/h (1 Bft) NW 12,0 C 26,3 C 6,1 km/h (2 Bft)
28.06.2023 17:00 25,9 C 45 % 1012,8 hPa 0,0 l/m 2,5 km/h (1 Bft) W 13,0 C 25,9 C 6,1 km/h (2 Bft)
28.06.2023 18:00 26,9 C 42 % 1012,5 hPa 0,0 l/m 1,1 km/h (1 Bft) W 12,9 C 26,9 C 3,6 km/h (1 Bft)
28.06.2023 19:00 26,7 C 43 % 1012,3 hPa 0,0 l/m 3,6 km/h (1 Bft) N-NO 13,1 C 26,7 C 7,2 km/h (2 Bft)
28.06.2023 20:00 25,5 C 45 % 1012,1 hPa 0,0 l/m 2,5 km/h (1 Bft) NO 12,7 C 25,5 C 6,1 km/h (2 Bft)
28.06.2023 21:00 24,6 C 48 % 1012,2 hPa 0,0 l/m 2,5 km/h (1 Bft) N 12,8 C 24,6 C 6,1 km/h (2 Bft)
28.06.2023 22:00 21,4 C 61 % 1012,3 hPa 0,0 l/m 0,0 km/h (0 Bft) N 13,6 C 21,4 C 2,5 km/h (1 Bft)
28.06.2023 23:00 19,2 C 69 % 1012,6 hPa 0,0 l/m 0,0 km/h (0 Bft) N 13,4 C 19,2 C 2,5 km/h (1 Bft)
29.06.2023 00:00 17,9 C 74 % 1012,8 hPa 0,0 l/m 0,0 km/h (0 Bft) NO 13,2 C 17,9 C 0,0 km/h (0 Bft)
29.06.2023 01:00 16,4 C 79 % 1012,7 hPa 0,0 l/m 1,1 km/h (1 Bft) NO 12,7 C 16,4 C 2,5 km/h (1 Bft)
29.06.2023 02:00 16,3 C 78 % 1012,2 hPa 0,0 l/m 1,1 km/h (1 Bft) N 12,5 C 16,3 C 2,5 km/h (1 Bft)
29.06.2023 03:00 15,9 C 79 % 1012,1 hPa 0,0 l/m 0,0 km/h (0 Bft) O-NO 12,3 C 15,9 C 3,6 km/h (1 Bft)
29.06.2023 04:00 15,6 C 80 % 1011,8 hPa 0,0 l/m 1,1 km/h (1 Bft) N 12,2 C 15,6 C 2,5 km/h (1 Bft)
29.06.2023 05:00 14,4 C 87 % 1011,7 hPa 0,0 l/m 0,0 km/h (0 Bft) O-NO 12,3 C 14,4 C 0,0 km/h (0 Bft)
29.06.2023 06:00 14,5 C 86 % 1011,5 hPa 0,0 l/m 1,1 km/h (1 Bft) N 12,2 C 14,5 C 2,5 km/h (1 Bft)
29.06.2023 07:00 14,6 C 86 % 1011,5 hPa 0,0 l/m 0,0 km/h (0 Bft) N 12,3 C 14,6 C 0,0 km/h (0 Bft)
29.06.2023 08:00 17,0 C 78 % 1011,2 hPa 0,0 l/m 0,0 km/h (0 Bft) O-NO 13,1 C 17,0 C 0,0 km/h (0 Bft)
29.06.2023 09:00 18,9 C 71 % 1011,6 hPa 0,0 l/m 1,1 km/h (1 Bft) W-SW 13,5 C 18,9 C 2,5 km/h (1 Bft)
29.06.2023 10:00 21,6 C 62 % 1011,4 hPa 0,0 l/m 2,5 km/h (1 Bft) N 14,0 C 21,6 C 6,1 km/h (2 Bft)
29.06.2023 11:00 24,3 C 54 % 1011,0 hPa 0,0 l/m 0,0 km/h (0 Bft) NW 14,4 C 24,3 C 2,5 km/h (1 Bft)
29.06.2023 12:00 25,7 C 50 % 1010,7 hPa 0,0 l/m 6,1 km/h (2 Bft) W 14,5 C 25,7 C 9,7 km/h (2 Bft)
29.06.2023 13:00 26,8 C 46 % 1010,2 hPa 0,0 l/m 3,6 km/h (1 Bft) W 14,2 C 26,8 C 6,1 km/h (2 Bft)
29.06.2023 14:00 28,0 C 43 % 1010,2 hPa 0,0 l/m 3,6 km/h (1 Bft) NO 14,2 C 28,0 C 7,2 km/h (2 Bft)
29.06.2023 15:00 27,7 C 43 % 1009,4 hPa 0,0 l/m 5,0 km/h (1 Bft) NW 14,0 C 27,7 C 7,2 km/h (2 Bft)
29.06.2023 16:00 27,4 C 46 % 1009,3 hPa 0,0 l/m 3,6 km/h (1 Bft) N 14,7 C 27,4 C 7,2 km/h (2 Bft)
29.06.2023 17:00 28,0 C 44 % 1008,9 hPa 0,0 l/m 2,5 km/h (1 Bft) W-SW 14,6 C 28,0 C 3,6 km/h (1 Bft)
29.06.2023 18:00 28,8 C 43 % 1008,5 hPa 0,0 l/m 2,5 km/h (1 Bft) W 15,0 C 28,8 C 6,1 km/h (2 Bft)
29.06.2023 19:00 29,3 C 42 % 1008,1 hPa 0,0 l/m 3,6 km/h (1 Bft) S 15,0 C 29,3 C 6,1 km/h (2 Bft)
29.06.2023 20:00 28,2 C 45 % 1008,0 hPa 0,0 l/m 1,1 km/h (1 Bft) W-NW 15,1 C 28,2 C 2,5 km/h (1 Bft)
29.06.2023 21:00 27,1 C 49 % 1008,2 hPa 0,0 l/m 1,1 km/h (1 Bft) N 15,4 C 27,1 C 2,5 km/h (1 Bft)
29.06.2023 22:00 24,5 C 61 % 1008,1 hPa 0,0 l/m 0,0 km/h (0 Bft) N 16,5 C 24,5 C 0,0 km/h (0 Bft)
29.06.2023 23:00 22,6 C 68 % 1008,3 hPa 0,0 l/m 0,0 km/h (0 Bft) N 16,4 C 22,6 C 0,0 km/h (0 Bft)
30.06.2023 00:00 21,9 C 69 % 1008,3 hPa 0,0 l/m 0,0 km/h (0 Bft) W-NW 15,9 C 21,9 C 0,0 km/h (0 Bft)
30.06.2023 01:00 20,6 C 73 % 1007,8 hPa 0,0 l/m 1,1 km/h (1 Bft) N 15,6 C 20,6 C 3,6 km/h (1 Bft)
30.06.2023 02:00 19,6 C 78 % 1007,7 hPa 0,0 l/m 0,0 km/h (0 Bft) W-NW 15,7 C 19,6 C 0,0 km/h (0 Bft)
30.06.2023 03:00 19,5 C 80 % 1007,7 hPa 0,0 l/m 2,5 km/h (1 Bft) O-SO 16,0 C 19,5 C 3,6 km/h (1 Bft)
30.06.2023 04:00 18,2 C 91 % 1007,6 hPa 1,8 l/m 2,5 km/h (1 Bft) N 16,7 C 18,2 C 6,1 km/h (2 Bft)
30.06.2023 05:00 17,7 C 96 % 1007,3 hPa 0,0 l/m 0,0 km/h (0 Bft) N 17,1 C 17,7 C 0,0 km/h (0 Bft)
30.06.2023 06:00 17,9 C 95 % 1007,2 hPa 0,0 l/m 0,0 km/h (0 Bft) SW 17,1 C 17,9 C 0,0 km/h (0 Bft)
30.06.2023 07:00 17,9 C 95 % 1008,0 hPa 0,9 l/m 1,1 km/h (1 Bft) N 17,1 C 17,9 C 2,5 km/h (1 Bft)
30.06.2023 08:00 17,8 C 98 % 1008,2 hPa 3,9 l/m 0,0 km/h (0 Bft) W-SW 17,5 C 17,8 C 0,0 km/h (0 Bft)
30.06.2023 09:00 17,7 C 99 % 1009,1 hPa 4,8 l/m 3,6 km/h (1 Bft) S-SW 17,5 C 17,7 C 6,1 km/h (2 Bft)
30.06.2023 10:00 17,4 C 98 % 1009,1 hPa 3,0 l/m 2,5 km/h (1 Bft) N 17,1 C 17,4 C 3,6 km/h (1 Bft)
30.06.2023 11:00 17,8 C 98 % 1008,6 hPa 0,0 l/m 0,0 km/h (0 Bft) SW 17,5 C 17,8 C 0,0 km/h (0 Bft)
30.06.2023 12:00 19,6 C 93 % 1009,1 hPa 0,3 l/m 1,1 km/h (1 Bft) W-SW 18,4 C 19,6 C 2,5 km/h (1 Bft)
30.06.2023 13:00 19,4 C 90 % 1008,9 hPa 0,0 l/m 1,1 km/h (1 Bft) W 17,7 C 19,4 C 3,6 km/h (1 Bft)
30.06.2023 14:00 20,1 C 84 % 1009,0 hPa 0,0 l/m 2,5 km/h (1 Bft) W 17,3 C 20,1 C 6,1 km/h (2 Bft)
30.06.2023 15:00 19,2 C 91 % 1008,9 hPa 0,3 l/m 3,6 km/h (1 Bft) O-SO 17,7 C 19,2 C 9,7 km/h (2 Bft)
30.06.2023 16:00 18,5 C 93 % 1008,9 hPa 0,9 l/m 2,5 km/h (1 Bft) SO 17,3 C 18,5 C 3,6 km/h (1 Bft)
30.06.2023 17:00 19,9 C 89 % 1008,3 hPa 0,3 l/m 1,1 km/h (1 Bft) S-SW 18,0 C 19,9 C 2,5 km/h (1 Bft)
30.06.2023 18:00 20,8 C 84 % 1007,9 hPa 0,0 l/m 2,5 km/h (1 Bft) N 18,0 C 20,8 C 6,1 km/h (2 Bft)
30.06.2023 19:00 17,2 C 95 % 1008,3 hPa 3,3 l/m 0,0 km/h (0 Bft) S-SO 16,4 C 17,2 C 2,5 km/h (1 Bft)
30.06.2023 20:00 17,4 C 97 % 1008,7 hPa 0,0 l/m 3,6 km/h (1 Bft) O-SO 16,9 C 17,4 C 6,1 km/h (2 Bft)
30.06.2023 21:00 17,1 C 94 % 1008,8 hPa 0,0 l/m 1,1 km/h (1 Bft) N 16,1 C 17,1 C 3,6 km/h (1 Bft)
30.06.2023 22:00 16,6 C 96 % 1009,1 hPa 0,0 l/m 0,0 km/h (0 Bft) SW 16,0 C 16,6 C 2,5 km/h (1 Bft)
30.06.2023 23:00 15,8 C 96 % 1009,6 hPa 0,0 l/m 1,1 km/h (1 Bft) N 15,2 C 15,8 C 2,5 km/h (1 Bft)
01.07.2023 01:00 15,2 C 98 % 1009,5 hPa 0,0 l/m 1,1 km/h (1 Bft) N 14,9 C 15,2 C 2,5 km/h (1 Bft)
01.07.2023 02:00 15,3 C 99 % 1009,2 hPa 0,0 l/m 0,0 km/h (0 Bft) N 15,1 C 15,3 C 0,0 km/h (0 Bft)
01.07.2023 03:00 15,2 C 99 % 1008,9 hPa 0,0 l/m 0,0 km/h (0 Bft) O-SO 15,0 C 15,2 C 2,5 km/h (1 Bft)
01.07.2023 04:00 14,8 C 99 % 1008,7 hPa 0,0 l/m 1,1 km/h (1 Bft) O-SO 14,6 C 14,8 C 2,5 km/h (1 Bft)
01.07.2023 05:00 14,9 C 99 % 1008,2 hPa 0,0 l/m 1,1 km/h (1 Bft) N 14,7 C 14,9 C 2,5 km/h (1 Bft)
01.07.2023 06:00 13,9 C 99 % 1008,6 hPa 0,0 l/m 0,0 km/h (0 Bft) N 13,7 C 13,9 C 0,0 km/h (0 Bft)
01.07.2023 07:00 14,4 C 99 % 1008,5 hPa 0,0 l/m 0,0 km/h (0 Bft) N 14,2 C 14,4 C 0,0 km/h (0 Bft)
01.07.2023 08:00 15,4 C 99 % 1008,3 hPa 0,0 l/m 0,0 km/h (0 Bft) W-SW 15,2 C 15,4 C 0,0 km/h (0 Bft)
01.07.2023 09:00 16,5 C 80 % 1008,6 hPa 0,0 l/m 5,0 km/h (1 Bft) W 13,0 C 16,5 C 7,2 km/h (2 Bft)
01.07.2023 10:00 18,8 C 68 % 1008,2 hPa 0,0 l/m 9,7 km/h (2 Bft) SW 12,8 C 17,4 C 17,3 km/h (3 Bft)
01.07.2023 11:00 19,6 C 64 % 1007,8 hPa 0,0 l/m 7,2 km/h (2 Bft) W-SW 12,6 C 19,3 C 9,7 km/h (2 Bft)
01.07.2023 12:00 20,3 C 60 % 1007,5 hPa 0,0 l/m 8,6 km/h (2 Bft) SW 12,3 C 19,4 C 14,8 km/h (3 Bft)
01.07.2023 13:00 20,1 C 59 % 1007,2 hPa 0,0 l/m 6,1 km/h (2 Bft) W-SW 11,8 C 20,1 C 11,2 km/h (2 Bft)
01.07.2023 14:00 20,2 C 60 % 1007,0 hPa 0,0 l/m 8,6 km/h (2 Bft) W 12,2 C 19,3 C 11,2 km/h (2 Bft)
01.07.2023 15:00 20,7 C 64 % 1006,5 hPa 0,0 l/m 11,2 km/h (2 Bft) W 13,6 C 19,1 C 17,3 km/h (3 Bft)
01.07.2023 16:00 19,7 C 70 % 1006,4 hPa 0,0 l/m 9,7 km/h (2 Bft) SW 14,1 C 18,4 C 13,3 km/h (3 Bft)
01.07.2023 17:00 20,1 C 69 % 1006,0 hPa 0,0 l/m 5,0 km/h (1 Bft) W 14,2 C 20,1 C 7,2 km/h (2 Bft)
01.07.2023 18:00 18,9 C 79 % 1006,0 hPa 0,3 l/m 7,2 km/h (2 Bft) SO 15,2 C 18,5 C 11,2 km/h (2 Bft)
01.07.2023 19:00 18,1 C 86 % 1005,7 hPa 0,0 l/m 2,5 km/h (1 Bft) SO 15,7 C 18,1 C 6,1 km/h (2 Bft)
01.07.2023 20:00 18,6 C 85 % 1005,8 hPa 0,0 l/m 2,5 km/h (1 Bft) W-SW 16,0 C 18,6 C 3,6 km/h (1 Bft)
01.07.2023 21:00 19,2 C 82 % 1005,9 hPa 0,0 l/m 8,6 km/h (2 Bft) W-SW 16,0 C 18,3 C 13,3 km/h (3 Bft)
01.07.2023 22:00 18,3 C 87 % 1006,1 hPa 0,0 l/m 5,0 km/h (1 Bft) SW 16,1 C 18,3 C 6,1 km/h (2 Bft)
01.07.2023 23:00 18,6 C 86 % 1006,8 hPa 0,0 l/m 6,1 km/h (2 Bft) W-SW 16,2 C 18,6 C 9,7 km/h (2 Bft)
02.07.2023 00:00 17,9 C 91 % 1007,1 hPa 0,0 l/m 6,1 km/h (2 Bft) W-SW 16,4 C 17,9 C 9,7 km/h (2 Bft)
02.07.2023 01:00 17,7 C 92 % 1007,2 hPa 0,0 l/m 0,0 km/h (0 Bft) W-SW 16,4 C 17,7 C 0,0 km/h (0 Bft)
02.07.2023 02:00 18,1 C 91 % 1007,2 hPa 0,0 l/m 3,6 km/h (1 Bft) N 16,6 C 18,1 C 7,2 km/h (2 Bft)
02.07.2023 03:00 18,0 C 92 % 1007,3 hPa 0,0 l/m 0,0 km/h (0 Bft) N 16,7 C 18,0 C 2,5 km/h (1 Bft)
02.07.2023 04:00 17,5 C 93 % 1007,5 hPa 0,0 l/m 0,0 km/h (0 Bft) SW 16,4 C 17,5 C 0,0 km/h (0 Bft)
02.07.2023 05:00 17,5 C 94 % 1007,9 hPa 0,0 l/m 5,0 km/h (1 Bft) W 16,5 C 17,5 C 7,2 km/h (2 Bft)
02.07.2023 06:00 17,4 C 92 % 1008,2 hPa 0,0 l/m 2,5 km/h (1 Bft) SW 16,1 C 17,4 C 3,6 km/h (1 Bft)
02.07.2023 07:00 17,5 C 85 % 1008,3 hPa 0,0 l/m 6,1 km/h (2 Bft) W 14,9 C 17,5 C 9,7 km/h (2 Bft)
02.07.2023 08:00 17,6 C 83 % 1009,0 hPa 0,0 l/m 3,6 km/h (1 Bft) W-SW 14,7 C 17,6 C 6,1 km/h (2 Bft)
02.07.2023 09:00 18,2 C 79 % 1009,7 hPa 0,0 l/m 6,1 km/h (2 Bft) SW 14,5 C 18,2 C 7,2 km/h (2 Bft)
02.07.2023 10:00 19,3 C 72 % 1009,9 hPa 0,0 l/m 6,1 km/h (2 Bft) SW 14,1 C 19,3 C 9,7 km/h (2 Bft)
02.07.2023 11:00 20,0 C 67 % 1010,0 hPa 0,0 l/m 9,7 km/h (2 Bft) W 13,7 C 18,7 C 14,8 km/h (3 Bft)
02.07.2023 12:00 21,9 C 60 % 1010,0 hPa 0,0 l/m 6,1 km/h (2 Bft) W-NW 13,8 C 21,9 C 7,2 km/h (2 Bft)
02.07.2023 13:00 22,8 C 55 % 1009,7 hPa 0,0 l/m 8,6 km/h (2 Bft) SW 13,3 C 22,1 C 11,2 km/h (2 Bft)
02.07.2023 14:00 21,9 C 63 % 1009,7 hPa 0,0 l/m 8,6 km/h (2 Bft) W-SW 14,5 C 21,2 C 13,3 km/h (3 Bft)
02.07.2023 15:00 23,1 C 59 % 1009,4 hPa 0,0 l/m 8,6 km/h (2 Bft) W-SW 14,6 C 22,4 C 13,3 km/h (3 Bft)
02.07.2023 16:00 23,3 C 56 % 1009,3 hPa 0,0 l/m 8,6 km/h (2 Bft) W 14,0 C 22,6 C 20,9 km/h (4 Bft)
02.07.2023 17:00 25,4 C 48 % 1009,2 hPa 0,0 l/m 11,2 km/h (2 Bft) W-SW 13,6 C 24,4 C 14,8 km/h (3 Bft)
02.07.2023 18:00 25,5 C 42 % 1009,1 hPa 0,0 l/m 9,7 km/h (2 Bft) W 11,6 C 24,8 C 14,8 km/h (3 Bft)
02.07.2023 19:00 25,8 C 42 % 1008,7 hPa 0,0 l/m 6,1 km/h (2 Bft) W-SW 11,9 C 25,8 C 9,7 km/h (2 Bft)
02.07.2023 20:00 24,4 C 44 % 1008,7 hPa 0,0 l/m 8,6 km/h (2 Bft) W-SW 11,3 C 23,8 C 13,3 km/h (3 Bft)
02.07.2023 21:00 23,1 C 49 % 1008,8 hPa 0,0 l/m 6,1 km/h (2 Bft) W-SW 11,8 C 23,1 C 9,7 km/h (2 Bft)
02.07.2023 22:00 20,8 C 55 % 1009,1 hPa 0,0 l/m 2,5 km/h (1 Bft) NO 11,4 C 20,8 C 3,6 km/h (1 Bft)
02.07.2023 23:00 18,0 C 69 % 1009,7 hPa 0,0 l/m 3,6 km/h (1 Bft) NO 12,2 C 18,0 C 6,1 km/h (2 Bft)
Min-Datum _ 28.06.23 27.06.23 01.07.23 - 26.06.23 - 27.06.23 28.06.23 26.06.23
_ Min-Zeit 03:21 17:21 19:21 - 00:21 - 16:21 03:21 00:21
Minimum _ 13,8 C 38 % 1005,7 hPa - 0,0 km/h (0 Bft) - 10,0 C 13,8 C 0,0 km/h (0 Bft)
Max-Datum _ 26.06.23 30.06.23 27.06.23 30.06.23 01.07.23 - 30.06.23 26.06.23 02.07.23
_ Max-Zeit 14:21 09:21 08:21 09:21 15:21 - 12:21 14:21 16:21
Maximum _ 29,6 C 99 % 1017,1 hPa 4,8 l/m 11,2 km/h
W (2 Bft)
- 18,4 C 29,6 C 20,9 km/h
W (4 Bft)
Durchschnitt _ 20,4 C 70 % 1011,1 hPa #19,8 l/m 2,7 km/h (1 Bft) W-SW 14,0 C 20,3 C 5,0 km/h (1 Bft)
www.sexauwetter.de